createdAt,value
2018-02-11T00:00:36.450Z,88.20
2018-02-11T00:03:06.279Z,84.93
2018-02-11T00:05:36.390Z,79.95
2018-02-11T00:08:05.441Z,77.72
2018-02-11T00:10:34.491Z,82.15
2018-02-11T00:13:03.557Z,84.65
2018-02-11T00:15:32.629Z,84.65
2018-02-11T00:18:01.718Z,78.60
2018-02-11T00:20:30.816Z,81.03
2018-02-11T00:22:59.925Z,91.07
2018-02-11T00:25:28.978Z,76.37
2018-02-11T00:27:58.795Z,88.95
2018-02-11T00:30:27.865Z,76.95
2018-02-11T00:32:56.913Z,83.90
2018-02-11T00:35:26.007Z,70.12
2018-02-11T00:38:11.779Z,81.40
2018-02-11T00:40:40.918Z,80.03
2018-02-11T00:43:09.969Z,80.90
2018-02-11T00:45:39.836Z,81.68
2018-02-11T00:48:08.890Z,79.60
2018-02-11T00:50:38.061Z,85.53
2018-02-11T00:53:07.110Z,80.65
2018-02-11T00:55:36.178Z,75.22
2018-02-11T00:58:05.250Z,93.32
2018-02-11T01:00:35.058Z,88.15
2018-02-11T01:03:04.121Z,88.43
2018-02-11T01:05:33.170Z,82.03
2018-02-11T01:08:02.261Z,87.80
2018-02-11T01:10:31.358Z,86.75
2018-02-11T01:13:00.446Z,78.35
2018-02-11T01:15:29.512Z,81.20
2018-02-11T01:17:58.584Z,80.53
2018-02-11T01:20:27.657Z,82.47
2018-02-11T01:22:56.702Z,77.78
2018-02-11T01:25:25.853Z,88.28
2018-02-11T01:27:54.973Z,80.60
2018-02-11T01:30:24.826Z,77.87
2018-02-11T01:32:53.917Z,80.15
2018-02-11T01:35:23.763Z,82.18
2018-02-11T01:37:52.842Z,88.28
2018-02-11T01:40:21.969Z,84.18
2018-02-11T01:42:51.791Z,82.57
2018-02-11T01:45:21.666Z,90.07
2018-02-11T01:47:50.789Z,91.40
2018-02-11T01:50:19.875Z,81.45
2018-02-11T01:52:48.998Z,92.40
2018-02-11T01:55:18.048Z,96.47
2018-02-11T01:57:47.093Z,84.43
2018-02-11T02:00:16.138Z,84.03
2018-02-11T02:02:46.041Z,96.75
2018-02-11T02:05:15.125Z,84.22
2018-02-11T02:07:44.969Z,85.95
2018-02-11T02:10:14.088Z,89.32
2018-02-11T02:12:43.141Z,86.65
2018-02-11T02:15:12.262Z,83.07
2018-02-11T02:17:41.337Z,86.57
2018-02-11T02:20:10.447Z,84.82
2018-02-11T02:22:39.517Z,83.75
2018-02-11T02:25:08.643Z,79.87
2018-02-11T02:27:37.698Z,82.57
2018-02-11T02:30:06.803Z,94.13
2018-02-11T02:32:35.857Z,82.43
2018-02-11T02:35:04.970Z,81.57
2018-02-11T02:37:34.038Z,80.95
2018-02-11T02:40:03.169Z,80.28
2018-02-11T02:42:33.015Z,89.37
2018-02-11T02:45:02.099Z,83.35
2018-02-11T02:47:31.170Z,90.03
2018-02-11T02:50:00.237Z,80.50
2018-02-11T02:52:30.082Z,87.62
2018-02-11T02:54:59.138Z,87.72
2018-02-11T02:57:28.294Z,74.62
2018-02-11T02:59:57.371Z,84.22
2018-02-11T03:02:27.266Z,85.25
2018-02-11T03:04:56.325Z,83.35
2018-02-11T03:07:26.142Z,82.55
2018-02-11T03:09:55.186Z,87.12
2018-02-11T03:12:24.303Z,86.93
2018-02-11T03:14:53.345Z,90.93
2018-02-11T03:17:22.418Z,84.03
2018-02-11T03:19:51.493Z,82.37
2018-02-11T03:22:20.538Z,80.45
2018-02-11T03:24:49.637Z,75.85
2018-02-11T03:27:18.709Z,86.70
2018-02-11T03:29:47.826Z,82.07
2018-02-11T03:32:16.897Z,78.55
2018-02-11T03:34:46.021Z,88.40
2018-02-11T03:37:15.090Z,81.95
2018-02-11T03:39:44.189Z,85.97
2018-02-11T03:42:14.003Z,86.50
2018-02-11T03:44:43.097Z,82.85
2018-02-11T03:47:12.169Z,91.47
2018-02-11T03:49:41.243Z,83.18
2018-02-11T03:52:11.144Z,83.57
2018-02-11T03:54:40.258Z,80.85
2018-02-11T03:57:09.307Z,81.75
2018-02-11T03:59:38.406Z,81.00
2018-02-11T04:02:08.255Z,83.70
2018-02-11T04:04:37.322Z,77.05
2018-02-11T04:07:06.411Z,89.97
2018-02-11T04:09:35.490Z,83.28
2018-02-11T04:12:04.584Z,89.72
2018-02-11T04:14:33.631Z,82.22
2018-02-11T04:17:02.724Z,77.28
2018-02-11T04:19:31.797Z,78.95
2018-02-11T04:22:01.636Z,82.75
2018-02-11T04:24:30.729Z,84.37
2018-02-11T04:27:00.570Z,84.35
2018-02-11T04:29:29.708Z,86.30
2018-02-11T04:31:58.785Z,84.10
2018-02-11T04:34:28.649Z,82.00
2018-02-11T04:36:57.715Z,93.65
2018-02-11T04:39:27.563Z,84.82
2018-02-11T04:41:56.606Z,90.78
2018-02-11T04:44:25.734Z,86.03
2018-02-11T04:46:54.791Z,89.68
2018-02-11T04:49:23.894Z,82.70
2018-02-11T04:51:53.706Z,91.95
2018-02-11T04:54:23.545Z,83.12
2018-02-11T04:56:53.366Z,84.22
2018-02-11T04:59:22.494Z,83.62
2018-02-11T05:01:51.553Z,87.00
2018-02-11T05:04:20.681Z,90.57
2018-02-11T05:06:49.753Z,89.53
2018-02-11T05:09:18.878Z,91.97
2018-02-11T05:11:47.961Z,91.05
2018-02-11T05:14:17.077Z,89.25
2018-02-11T05:16:46.125Z,77.53
2018-02-11T05:19:15.225Z,89.32
2018-02-11T05:21:44.309Z,88.62
2018-02-11T05:24:13.418Z,82.57
2018-02-11T05:26:42.549Z,87.70
2018-02-11T05:29:11.653Z,89.62
2018-02-11T05:31:40.721Z,85.05
2018-02-11T05:34:09.813Z,83.53
2018-02-11T05:36:39.657Z,84.40
2018-02-11T05:39:08.761Z,92.35
2018-02-11T05:41:38.602Z,90.00
2018-02-11T05:44:07.663Z,84.80
2018-02-11T05:46:36.743Z,79.10
2018-02-11T05:49:05.818Z,91.37
2018-02-11T05:51:35.663Z,84.13
2018-02-11T05:54:04.725Z,85.97
2018-02-11T05:56:33.889Z,81.22
2018-02-11T05:59:02.958Z,83.60
2018-02-11T06:01:32.121Z,90.25
2018-02-11T06:04:01.205Z,85.30
2018-02-11T06:06:30.267Z,82.07
2018-02-11T06:08:59.342Z,79.85
2018-02-11T06:11:28.438Z,82.55
2018-02-11T06:13:57.493Z,76.28
2018-02-11T06:16:26.614Z,84.35
2018-02-11T06:18:55.684Z,76.75
2018-02-11T06:21:24.802Z,75.32
2018-02-11T06:23:53.905Z,79.95
2018-02-11T06:26:22.953Z,80.55
2018-02-11T06:28:52.077Z,80.32
2018-02-11T06:31:21.122Z,75.15
2018-02-11T06:33:50.230Z,71.78
2018-02-11T06:36:19.294Z,69.85
2018-02-11T06:38:48.363Z,68.60
2018-02-11T06:41:17.438Z,74.28
2018-02-11T06:43:47.254Z,70.97
2018-02-11T06:46:16.345Z,74.18
2018-02-11T06:48:45.418Z,82.70
2018-02-11T06:51:14.529Z,66.00
2018-02-11T06:53:43.581Z,69.05
2018-02-11T06:56:12.650Z,63.85
2018-02-11T06:58:41.754Z,66.00
2018-02-11T07:01:10.821Z,61.45
2018-02-11T07:03:39.902Z,68.47
2018-02-11T07:06:08.950Z,67.07
2018-02-11T07:08:38.841Z,69.40
2018-02-11T07:11:07.916Z,60.42
2018-02-11T07:13:37.046Z,62.33
2018-02-11T07:16:06.114Z,62.88
2018-02-11T07:18:35.961Z,60.20
2018-02-11T07:21:05.169Z,55.50
2018-02-11T07:23:34.247Z,56.63
2018-02-11T07:26:03.314Z,58.53
2018-02-11T07:28:32.433Z,46.25
2018-02-11T07:31:01.479Z,52.78
2018-02-11T07:33:30.629Z,42.55
2018-02-11T07:35:59.694Z,50.63
2018-02-11T07:38:28.785Z,40.80
2018-02-11T07:40:57.854Z,46.70
2018-02-11T07:43:26.921Z,38.55
2018-02-11T07:45:56.030Z,39.33
2018-02-11T07:48:25.082Z,36.75
2018-02-11T07:50:54.186Z,38.60
2018-02-11T07:53:23.993Z,36.60
2018-02-11T07:55:53.854Z,33.33
2018-02-11T07:58:22.953Z,37.55
2018-02-11T08:00:52.019Z,33.63
2018-02-11T08:03:21.077Z,35.42
2018-02-11T08:05:50.142Z,33.47
2018-02-11T08:08:19.245Z,32.80
2018-02-11T08:10:48.313Z,34.70
2018-02-11T08:13:17.414Z,27.33
2018-02-11T08:15:46.457Z,34.38
2018-02-11T08:18:15.528Z,29.92
2018-02-11T08:20:45.358Z,24.80
2018-02-11T08:23:14.426Z,30.92
2018-02-11T08:25:43.493Z,27.20
2018-02-11T08:28:12.641Z,25.25
2018-02-11T08:30:41.681Z,27.17
2018-02-11T08:33:11.558Z,25.88
2018-02-11T08:35:40.626Z,26.35
2018-02-11T08:38:09.689Z,26.98
2018-02-11T08:40:39.537Z,25.62
2018-02-11T08:43:08.630Z,24.42
2018-02-11T08:45:37.693Z,24.90
2018-02-11T08:48:06.815Z,24.55
2018-02-11T08:50:35.881Z,23.17
2018-02-11T08:53:04.947Z,22.27
2018-02-11T08:55:34.013Z,18.98
2018-02-11T08:58:03.846Z,21.75
2018-02-11T09:00:42.669Z,23.12
2018-02-11T09:03:11.769Z,21.23
2018-02-11T09:05:41.602Z,27.35
2018-02-11T09:08:11.410Z,20.52
2018-02-11T09:10:40.501Z,23.40
2018-02-11T09:13:09.545Z,20.52
2018-02-11T09:15:38.636Z,19.08
2018-02-11T09:18:07.721Z,23.65
2018-02-11T09:20:37.590Z,23.20
2018-02-11T09:23:06.626Z,20.48
2018-02-11T09:25:35.710Z,21.90
2018-02-11T09:28:04.758Z,27.73
2018-02-11T09:30:33.800Z,16.50
2018-02-11T09:33:02.890Z,22.00
2018-02-11T09:35:32.716Z,15.85
2018-02-11T09:38:02.617Z,21.90
2018-02-11T09:40:31.689Z,16.00
2018-02-11T09:43:00.781Z,17.20
2018-02-11T09:45:29.845Z,16.70
2018-02-11T09:47:59.089Z,18.83
2018-02-11T09:50:28.994Z,17.83
2018-02-11T09:52:58.120Z,15.80
2018-02-11T09:55:27.941Z,18.35
2018-02-11T09:57:57.810Z,16.92
2018-02-11T10:00:26.914Z,14.95
2018-02-11T10:02:55.953Z,17.40
2018-02-11T10:05:25.028Z,15.17
2018-02-11T10:07:54.066Z,16.00
2018-02-11T10:10:23.141Z,12.60
2018-02-11T10:12:52.209Z,13.43
2018-02-11T10:15:21.262Z,13.35
2018-02-11T10:17:50.329Z,16.25
2018-02-11T10:20:19.402Z,16.15
2018-02-11T10:22:48.506Z,13.65
2018-02-11T10:25:17.545Z,14.63
2018-02-11T10:27:46.609Z,11.85
2018-02-11T10:30:15.650Z,13.15
2018-02-11T10:32:44.770Z,17.08
2018-02-11T10:35:13.807Z,13.52
2018-02-11T10:37:42.886Z,13.07
2018-02-11T10:40:11.941Z,12.95
2018-02-11T10:42:41.082Z,13.07
2018-02-11T10:45:10.209Z,13.77
2018-02-11T10:47:39.361Z,26.48
2018-02-11T10:50:08.466Z,14.10
2018-02-11T10:52:37.525Z,14.15
2018-02-11T10:55:06.588Z,13.77
2018-02-11T10:57:35.678Z,15.82
2018-02-11T11:00:04.722Z,12.23
2018-02-11T11:02:34.534Z,11.27
2018-02-11T11:05:04.352Z,16.55
2018-02-11T11:07:33.427Z,13.77
2018-02-11T11:10:02.501Z,12.15
2018-02-11T11:12:32.304Z,12.52
2018-02-11T11:15:01.382Z,15.32
2018-02-11T11:17:30.453Z,16.27
2018-02-11T11:19:59.597Z,10.73
2018-02-11T11:22:28.697Z,9.90
2018-02-11T11:24:57.792Z,13.48
2018-02-11T11:27:26.987Z,11.48
2018-02-11T11:29:56.086Z,11.00
2018-02-11T11:32:25.219Z,11.50
2018-02-11T11:34:54.254Z,9.82
2018-02-11T11:37:23.328Z,11.50
2018-02-11T11:39:52.393Z,9.57
2018-02-11T11:42:21.438Z,9.98
2018-02-11T11:44:50.571Z,10.77
2018-02-11T11:47:19.642Z,10.65
2018-02-11T11:49:48.724Z,13.50
2018-02-11T11:52:17.798Z,10.02
2018-02-11T11:54:46.870Z,11.48
2018-02-11T11:57:15.933Z,12.13
2018-02-11T11:59:45.023Z,10.95
2018-02-11T12:02:14.831Z,16.17
2018-02-11T12:04:43.966Z,12.02
2018-02-11T12:07:13.118Z,13.02
2018-02-11T12:09:42.201Z,12.45
2018-02-11T12:12:11.265Z,12.23
2018-02-11T12:14:40.343Z,10.52
2018-02-11T12:17:10.173Z,12.18
2018-02-11T12:19:39.298Z,13.55
2018-02-11T12:22:08.325Z,10.55
2018-02-11T12:24:37.433Z,12.63
2018-02-11T12:27:06.466Z,9.85
2018-02-11T12:29:36.322Z,9.82
2018-02-11T12:32:05.378Z,9.68
2018-02-11T12:34:34.485Z,8.35
2018-02-11T12:37:03.516Z,9.23
2018-02-11T12:39:33.374Z,10.63
2018-02-11T12:42:02.438Z,10.60
2018-02-11T12:44:31.529Z,10.65
2018-02-11T12:47:00.585Z,9.82
2018-02-11T12:49:29.641Z,10.13
2018-02-11T12:51:58.690Z,12.27
2018-02-11T12:54:28.512Z,9.73
2018-02-11T12:56:58.326Z,9.88
2018-02-11T12:59:27.399Z,14.43
2018-02-11T13:01:56.465Z,15.00
2018-02-11T13:04:26.315Z,12.68
2018-02-11T13:06:55.380Z,10.75
2018-02-11T13:09:24.417Z,15.20
2018-02-11T13:11:54.254Z,11.12
2018-02-11T13:14:23.337Z,10.95
2018-02-11T13:16:53.201Z,10.02
2018-02-11T13:19:22.269Z,11.32
2018-02-11T13:21:51.385Z,12.10
2018-02-11T13:24:21.209Z,15.85
2018-02-11T13:26:51.086Z,10.55
2018-02-11T13:29:20.154Z,10.60
2018-02-11T13:31:50.120Z,12.60
2018-02-11T13:34:19.176Z,11.32
2018-02-11T13:36:48.340Z,9.13
2018-02-11T13:39:17.377Z,11.15
2018-02-11T13:41:48.074Z,9.85
2018-02-11T13:44:17.126Z,12.30
2018-02-11T13:46:46.266Z,11.60
2018-02-11T13:49:16.082Z,10.55
2018-02-11T13:51:45.126Z,13.15
2018-02-11T13:54:14.928Z,11.90
2018-02-11T13:56:43.965Z,12.40
2018-02-11T13:59:13.779Z,14.10
2018-02-11T14:01:43.637Z,13.07
2018-02-11T14:04:12.697Z,12.65
2018-02-11T14:06:41.743Z,17.92
2018-02-11T14:09:11.546Z,12.88
2018-02-11T14:11:40.611Z,12.35
2018-02-11T14:14:09.702Z,12.43
2018-02-11T14:16:43.730Z,11.30
2018-02-11T14:19:12.882Z,18.77
2018-02-11T14:21:41.977Z,15.05
2018-02-11T14:24:11.137Z,11.52
2018-02-11T14:26:40.270Z,14.73
2018-02-11T14:29:09.410Z,14.70
2018-02-11T14:31:38.560Z,14.55
2018-02-11T14:34:08.452Z,15.63
2018-02-11T14:36:37.519Z,17.25
2018-02-11T14:39:07.420Z,13.85
2018-02-11T14:41:36.499Z,16.65
2018-02-11T14:44:05.629Z,16.10
2018-02-11T14:46:34.812Z,18.83
2018-02-11T14:49:03.913Z,14.60
2018-02-11T14:51:33.142Z,15.48
2018-02-11T14:54:02.252Z,15.80
2018-02-11T14:56:32.027Z,17.48
2018-02-11T14:59:01.929Z,16.30
2018-02-11T15:01:31.170Z,16.80
2018-02-11T15:04:01.199Z,17.90
2018-02-11T15:06:30.300Z,15.45
2018-02-11T15:08:59.416Z,16.85
2018-02-11T15:11:28.533Z,18.00
2018-02-11T15:13:57.669Z,16.58
2018-02-11T15:16:26.722Z,21.23
2018-02-11T15:18:55.866Z,20.55
2018-02-11T15:21:26.585Z,16.62
2018-02-11T15:23:55.711Z,21.40
2018-02-11T15:26:25.170Z,16.83
2018-02-11T15:28:54.282Z,19.92
2018-02-11T15:31:23.394Z,21.20
2018-02-11T15:33:52.473Z,19.95
2018-02-11T15:36:21.620Z,17.80
2018-02-11T15:38:50.739Z,22.55
2018-02-11T15:41:19.909Z,15.45
2018-02-11T15:43:49.761Z,15.68
2018-02-11T15:46:18.842Z,18.08
2018-02-11T15:48:47.953Z,14.95
2018-02-11T15:51:17.799Z,14.75
2018-02-11T15:53:46.885Z,18.35
2018-02-11T15:56:15.930Z,24.12
2018-02-11T15:58:45.082Z,21.00
2018-02-11T16:01:14.267Z,19.70
2018-02-11T16:03:43.351Z,15.98
2018-02-11T16:06:13.178Z,21.08
2018-02-11T16:08:43.061Z,20.88
2018-02-11T16:11:12.133Z,18.70
2018-02-11T16:13:41.234Z,18.52
2018-02-11T16:16:10.381Z,15.18
2018-02-11T16:18:39.634Z,18.08
2018-02-11T16:21:10.231Z,16.30
2018-02-11T16:23:39.318Z,18.35
2018-02-11T16:26:08.382Z,21.05
2018-02-11T16:28:37.461Z,22.10
2018-02-11T16:31:06.527Z,14.60
2018-02-11T16:33:36.433Z,19.75
2018-02-11T16:36:05.546Z,15.15
2018-02-11T16:38:34.608Z,18.73
2018-02-11T16:41:03.709Z,18.12
2018-02-11T16:43:32.825Z,20.90
2018-02-11T16:46:01.870Z,19.98
2018-02-11T16:48:30.931Z,15.65
2018-02-11T16:51:00.165Z,19.70
2018-02-11T16:53:29.229Z,17.33
2018-02-11T16:55:59.088Z,17.33
2018-02-11T16:58:28.186Z,15.43
2018-02-11T17:00:58.001Z,14.65
2018-02-11T17:03:27.940Z,17.92
2018-02-11T17:05:57.753Z,17.02
2018-02-11T17:08:27.729Z,16.35
2018-02-11T17:10:56.825Z,26.02
2018-02-11T17:13:25.914Z,40.42
2018-02-11T17:15:55.726Z,17.60
2018-02-11T17:18:24.809Z,14.40
2018-02-11T17:20:53.922Z,21.00
2018-02-11T17:23:23.022Z,15.60
2018-02-11T17:25:52.067Z,15.02
2018-02-11T17:28:21.177Z,22.67
2018-02-11T17:30:50.237Z,18.33
2018-02-11T17:33:19.327Z,34.22
2018-02-11T17:35:48.391Z,18.50
2018-02-11T17:38:17.458Z,12.85
2018-02-11T17:40:46.534Z,18.17
2018-02-11T17:43:16.349Z,17.95
2018-02-11T17:45:46.254Z,12.70
2018-02-11T17:48:15.321Z,15.77
2018-02-11T17:50:45.169Z,10.45
2018-02-11T17:53:14.225Z,12.75
2018-02-11T17:55:43.295Z,10.32
2018-02-11T17:58:12.346Z,10.32
2018-02-11T18:00:41.453Z,9.57
2018-02-11T18:03:10.529Z,9.70
2018-02-11T18:05:39.602Z,10.32
2018-02-11T18:08:08.651Z,8.50
2018-02-11T18:10:37.678Z,16.70
2018-02-11T18:13:06.724Z,10.13
2018-02-11T18:15:36.557Z,9.85
2018-02-11T18:18:06.382Z,7.62
2018-02-11T18:20:36.225Z,7.82
2018-02-11T18:23:05.281Z,9.82
2018-02-11T18:25:34.337Z,11.35
2018-02-11T18:28:03.369Z,10.15
2018-02-11T18:30:32.416Z,24.55
2018-02-11T18:33:01.472Z,22.25
2018-02-11T18:35:30.537Z,7.87
2018-02-11T18:37:59.773Z,7.25
2018-02-11T18:40:29.749Z,8.05
2018-02-11T18:42:58.780Z,6.80
2018-02-11T18:45:27.821Z,10.18
2018-02-11T18:47:57.638Z,8.15
2018-02-11T18:50:27.462Z,6.95
2018-02-11T18:52:56.502Z,8.25
2018-02-11T18:55:25.606Z,8.30
2018-02-11T18:57:54.643Z,6.75
2018-02-11T19:00:23.670Z,7.10
2018-02-11T19:02:52.949Z,7.53
2018-02-11T19:05:21.995Z,6.40
2018-02-11T19:07:51.045Z,6.60
2018-02-11T19:10:20.946Z,7.20
2018-02-11T19:12:49.978Z,6.60
2018-02-11T19:15:19.816Z,7.40
2018-02-11T19:17:48.885Z,6.00
2018-02-11T19:20:17.948Z,5.78
2018-02-11T19:22:47.022Z,6.22
2018-02-11T19:25:16.058Z,13.20
2018-02-11T19:27:45.110Z,6.10
2018-02-11T19:30:14.142Z,5.57
2018-02-11T19:32:43.177Z,6.00
2018-02-11T19:35:13.021Z,5.57
2018-02-11T19:37:42.078Z,5.90
2018-02-11T19:40:11.885Z,5.40
2018-02-11T19:42:40.950Z,5.65
2018-02-11T19:45:10.845Z,5.72
2018-02-11T19:47:39.901Z,6.07
2018-02-11T19:50:08.955Z,5.82
2018-02-11T19:52:37.998Z,6.10
2018-02-11T19:55:07.817Z,5.95
2018-02-11T19:57:36.893Z,5.80
2018-02-11T20:00:05.925Z,5.82
2018-02-11T20:02:34.953Z,5.45
2018-02-11T20:05:04.770Z,6.22
2018-02-11T20:07:33.809Z,5.93
2018-02-11T20:10:02.879Z,5.47
2018-02-11T20:12:32.706Z,7.45
2018-02-11T20:15:01.800Z,9.15
2018-02-11T20:17:30.933Z,5.15
2018-02-11T20:20:00.004Z,5.93
2018-02-11T20:22:29.043Z,5.97
2018-02-11T20:24:58.862Z,5.57
2018-02-11T20:27:27.914Z,5.68
2018-02-11T20:29:57.731Z,5.18
2018-02-11T20:32:26.782Z,5.62
2018-02-11T20:34:55.854Z,5.95
2018-02-11T20:37:25.672Z,8.43
2018-02-11T20:39:55.513Z,6.57
2018-02-11T20:42:25.321Z,5.82
2018-02-11T20:44:54.349Z,5.43
2018-02-11T20:47:24.217Z,6.03
2018-02-11T20:49:53.261Z,5.57
2018-02-11T20:52:22.313Z,6.60
2018-02-11T20:54:51.346Z,5.53
2018-02-11T20:57:20.383Z,6.97
2018-02-11T20:59:49.465Z,7.93
2018-02-11T21:02:18.522Z,6.70
2018-02-11T21:04:48.338Z,6.07
2018-02-11T21:07:17.397Z,6.70
2018-02-11T21:09:46.447Z,5.70
2018-02-11T21:12:15.549Z,7.00
2018-02-11T21:14:44.597Z,6.20
2018-02-11T21:17:14.412Z,6.78
2018-02-11T21:19:44.326Z,9.68
2018-02-11T21:22:13.491Z,9.27
2018-02-11T21:24:42.572Z,6.90
2018-02-11T21:27:12.433Z,6.68
2018-02-11T21:29:41.462Z,6.95
2018-02-11T21:32:10.495Z,6.82
2018-02-11T21:34:39.546Z,6.65
2018-02-11T21:37:08.714Z,7.40
2018-02-11T21:39:37.762Z,7.43
2018-02-11T21:42:06.813Z,6.75
2018-02-11T21:44:35.877Z,6.37
2018-02-11T21:47:04.922Z,6.20
2018-02-11T21:49:34.022Z,7.47
2018-02-11T21:52:03.050Z,6.90
2018-02-11T21:54:32.078Z,8.52
2018-02-11T21:57:01.106Z,5.95
2018-02-11T21:59:30.917Z,7.65
2018-02-11T22:01:59.962Z,8.65
2018-02-11T22:04:28.994Z,7.57
2018-02-11T22:06:58.081Z,9.52
2018-02-11T22:09:27.243Z,7.15
2018-02-11T22:11:56.273Z,9.98
2018-02-11T22:14:26.218Z,7.32
2018-02-11T22:16:56.054Z,6.47
2018-02-11T22:19:25.109Z,9.13
2018-02-11T22:21:54.157Z,7.55
2018-02-11T22:24:23.191Z,7.00
2018-02-11T22:26:52.258Z,7.12
2018-02-11T22:29:21.405Z,7.05
2018-02-11T22:31:50.450Z,6.62
2018-02-11T22:34:19.555Z,7.25
2018-02-11T22:36:48.610Z,7.45
2018-02-11T22:39:18.488Z,7.03
2018-02-11T22:41:47.553Z,13.93
2018-02-11T22:44:17.409Z,7.53
2018-02-11T22:46:46.487Z,8.00
2018-02-11T22:49:15.656Z,6.87
2018-02-11T22:51:44.729Z,9.73
2018-02-11T22:54:13.777Z,7.25
2018-02-11T22:56:42.839Z,7.70
2018-02-11T22:59:12.642Z,7.97
2018-02-11T23:01:42.494Z,9.23
2018-02-11T23:04:11.534Z,7.95
2018-02-11T23:06:40.635Z,8.30
2018-02-11T23:09:09.669Z,7.43
2018-02-11T23:11:38.760Z,7.90
2018-02-11T23:14:07.833Z,7.25
2018-02-11T23:16:37.629Z,7.97
2018-02-11T23:19:10.818Z,8.82
2018-02-11T23:21:39.873Z,7.78
2018-02-11T23:24:09.746Z,8.35
2018-02-11T23:26:38.853Z,7.85
2018-02-11T23:29:07.925Z,8.40
2018-02-11T23:31:37.778Z,8.05
2018-02-11T23:34:06.901Z,8.98
2018-02-11T23:36:35.964Z,11.68
2018-02-11T23:39:05.770Z,8.68
2018-02-11T23:41:34.870Z,9.45
2018-02-11T23:44:03.906Z,12.73
2018-02-11T23:46:33.016Z,7.05
2018-02-11T23:49:02.097Z,9.00
2018-02-11T23:51:31.130Z,8.85
2018-02-11T23:54:00.977Z,8.75
2018-02-11T23:56:30.794Z,9.30
2018-02-11T23:59:00.033Z,10.55
